createdAt,value
2018-06-27T00:00:57.919Z,0.00
2018-06-27T00:01:57.927Z,0.00
2018-06-27T00:02:57.796Z,0.00
2018-06-27T00:03:57.743Z,0.00
2018-06-27T00:04:57.674Z,0.00
2018-06-27T00:05:57.612Z,0.00
2018-06-27T00:06:57.548Z,0.00
2018-06-27T00:07:57.487Z,0.00
2018-06-27T00:08:57.426Z,0.00
2018-06-27T00:09:57.364Z,0.00
2018-06-27T00:10:57.300Z,0.00
2018-06-27T00:11:57.239Z,0.00
2018-06-27T00:12:57.180Z,0.00
2018-06-27T00:13:57.116Z,0.00
2018-06-27T00:14:57.053Z,0.00
2018-06-27T00:15:56.991Z,0.00
2018-06-27T00:16:56.930Z,0.00
2018-06-27T00:17:56.866Z,0.00
2018-06-27T00:18:56.804Z,0.00
2018-06-27T00:19:56.740Z,0.00
2018-06-27T00:20:56.683Z,0.00
2018-06-27T00:21:56.624Z,0.00
2018-06-27T00:22:56.555Z,0.00
2018-06-27T00:23:56.492Z,0.00
2018-06-27T00:24:56.433Z,0.00
2018-06-27T00:25:56.371Z,0.00
2018-06-27T00:26:56.307Z,0.00
2018-06-27T00:27:56.246Z,0.00
2018-06-27T00:28:56.185Z,0.00
2018-06-27T00:29:56.123Z,0.00
2018-06-27T00:30:56.059Z,0.00
2018-06-27T00:31:56.000Z,0.00
2018-06-27T00:32:55.935Z,0.00
2018-06-27T00:33:55.905Z,0.00
2018-06-27T00:34:55.817Z,0.00
2018-06-27T00:35:55.756Z,0.00
2018-06-27T00:36:55.686Z,0.00
2018-06-27T00:37:55.625Z,0.00
2018-06-27T00:38:55.564Z,0.00
2018-06-27T00:39:55.503Z,0.00
2018-06-27T00:40:55.437Z,0.00
2018-06-27T00:41:55.377Z,0.00
2018-06-27T00:42:55.315Z,0.00
2018-06-27T00:43:55.253Z,0.00
2018-06-27T00:44:55.190Z,0.00
2018-06-27T00:45:55.130Z,0.00
2018-06-27T00:46:55.064Z,0.00
2018-06-27T00:47:55.007Z,0.00
2018-06-27T00:48:54.939Z,0.00
2018-06-27T00:49:54.881Z,0.00
2018-06-27T00:50:54.816Z,0.00
2018-06-27T00:51:54.756Z,0.00
2018-06-27T00:52:54.693Z,0.00
2018-06-27T00:53:54.632Z,0.00
2018-06-27T00:54:54.568Z,0.00
2018-06-27T00:55:54.505Z,0.00
2018-06-27T00:56:54.442Z,0.00
2018-06-27T00:57:54.380Z,0.00
2018-06-27T00:58:54.319Z,0.00
2018-06-27T00:59:54.255Z,0.00
2018-06-27T01:00:54.194Z,0.00
2018-06-27T01:01:54.132Z,0.00
2018-06-27T01:02:54.068Z,0.00
2018-06-27T01:03:54.006Z,0.00
2018-06-27T01:04:53.945Z,0.00
2018-06-27T01:05:53.882Z,0.00
2018-06-27T01:06:53.819Z,0.00
2018-06-27T01:07:53.757Z,0.00
2018-06-27T01:08:53.695Z,0.00
2018-06-27T01:09:53.633Z,0.00
2018-06-27T01:10:53.569Z,0.00
2018-06-27T01:11:53.511Z,0.00
2018-06-27T01:12:53.444Z,0.00
2018-06-27T01:13:53.383Z,0.00
2018-06-27T01:14:53.319Z,0.00
2018-06-27T01:15:53.259Z,0.00
2018-06-27T01:16:53.198Z,0.00
2018-06-27T01:17:53.134Z,0.00
2018-06-27T01:18:53.071Z,0.00
2018-06-27T01:19:53.008Z,0.00
2018-06-27T01:20:52.949Z,0.00
2018-06-27T01:21:52.885Z,0.00
2018-06-27T01:22:52.821Z,0.00
2018-06-27T01:23:52.760Z,0.00
2018-06-27T01:24:52.700Z,0.00
2018-06-27T01:25:52.635Z,0.00
2018-06-27T01:26:52.576Z,0.00
2018-06-27T01:27:52.509Z,0.00
2018-06-27T01:28:52.446Z,0.00
2018-06-27T01:29:52.392Z,0.00
2018-06-27T01:30:52.324Z,0.00
2018-06-27T01:31:52.261Z,0.00
2018-06-27T01:32:52.199Z,0.00
2018-06-27T01:33:52.137Z,0.00
2018-06-27T01:34:52.071Z,0.00
2018-06-27T01:35:52.011Z,0.00
2018-06-27T01:36:51.948Z,0.00
2018-06-27T01:37:51.884Z,0.00
2018-06-27T01:38:51.822Z,0.00
2018-06-27T01:39:51.760Z,0.00
2018-06-27T01:40:51.698Z,0.00
2018-06-27T01:41:51.637Z,0.00
2018-06-27T01:42:51.573Z,0.00
2018-06-27T01:43:51.512Z,0.00
2018-06-27T01:44:51.448Z,0.00
2018-06-27T01:45:51.388Z,0.00
2018-06-27T01:46:51.323Z,0.00
2018-06-27T01:47:51.264Z,0.00
2018-06-27T01:48:51.197Z,0.00
2018-06-27T01:49:51.137Z,0.00
2018-06-27T01:50:51.075Z,0.00
2018-06-27T01:51:51.012Z,0.00
2018-06-27T01:52:50.950Z,0.00
2018-06-27T01:53:50.889Z,0.00
2018-06-27T01:54:50.823Z,0.00
2018-06-27T01:55:50.763Z,0.00
2018-06-27T01:56:50.700Z,0.00
2018-06-27T01:57:50.638Z,0.00
2018-06-27T01:58:50.573Z,0.00
2018-06-27T01:59:50.511Z,0.00
2018-06-27T02:00:50.450Z,0.00
2018-06-27T02:01:50.387Z,0.00
2018-06-27T02:02:50.322Z,0.00
2018-06-27T02:03:50.265Z,0.00
2018-06-27T02:04:50.200Z,0.00
2018-06-27T02:05:50.136Z,0.00
2018-06-27T02:06:50.073Z,0.00
2018-06-27T02:07:50.011Z,0.00
2018-06-27T02:08:49.949Z,0.00
2018-06-27T02:09:49.884Z,0.00
2018-06-27T02:10:49.822Z,0.00
2018-06-27T02:11:49.761Z,0.00
2018-06-27T02:12:49.698Z,0.00
2018-06-27T02:13:49.636Z,0.00
2018-06-27T02:14:49.572Z,0.00
2018-06-27T02:15:49.510Z,0.00
2018-06-27T02:16:49.447Z,0.00
2018-06-27T02:17:49.386Z,0.00
2018-06-27T02:18:49.321Z,0.00
2018-06-27T02:19:49.260Z,0.00
2018-06-27T02:20:49.198Z,0.00
2018-06-27T02:21:49.135Z,0.00
2018-06-27T02:22:49.071Z,0.00
2018-06-27T02:23:49.009Z,0.00
2018-06-27T02:24:48.947Z,0.00
2018-06-27T02:25:48.885Z,0.00
2018-06-27T02:26:48.822Z,0.00
2018-06-27T02:27:48.760Z,0.00
2018-06-27T02:28:48.697Z,0.00
2018-06-27T02:29:48.640Z,0.00
2018-06-27T02:30:48.573Z,0.00
2018-06-27T02:31:48.514Z,0.00
2018-06-27T02:32:48.449Z,0.00
2018-06-27T02:33:48.387Z,0.00
2018-06-27T02:34:48.321Z,0.00
2018-06-27T02:35:48.261Z,0.00
2018-06-27T02:36:48.198Z,0.00
2018-06-27T02:37:48.136Z,0.00
2018-06-27T02:38:48.073Z,0.00
2018-06-27T02:39:48.008Z,0.00
2018-06-27T02:40:47.948Z,0.00
2018-06-27T02:41:47.886Z,0.00
2018-06-27T02:42:47.821Z,0.00
2018-06-27T02:43:47.759Z,0.00
2018-06-27T02:44:47.696Z,0.00
2018-06-27T02:45:47.634Z,0.00
2018-06-27T02:46:47.571Z,0.00
2018-06-27T02:47:47.512Z,0.00
2018-06-27T02:48:47.461Z,0.00
2018-06-27T02:49:47.445Z,0.00
2018-06-27T02:50:47.320Z,0.00
2018-06-27T02:51:47.259Z,0.00
2018-06-27T02:52:47.195Z,0.00
2018-06-27T02:53:47.133Z,0.00
2018-06-27T02:54:47.069Z,0.00
2018-06-27T02:55:47.008Z,0.00
2018-06-27T02:56:46.944Z,0.00
2018-06-27T02:57:46.882Z,0.00
2018-06-27T02:58:46.819Z,0.00
2018-06-27T02:59:46.760Z,0.00
2018-06-27T03:00:46.696Z,0.00
2018-06-27T03:01:46.634Z,0.00
2018-06-27T03:02:46.575Z,0.00
2018-06-27T03:03:46.507Z,0.00
2018-06-27T03:04:46.443Z,0.00
2018-06-27T03:05:46.386Z,0.00
2018-06-27T03:06:46.317Z,0.00
2018-06-27T03:07:46.256Z,0.00
2018-06-27T03:08:46.192Z,0.00
2018-06-27T03:09:46.130Z,0.00
2018-06-27T03:10:46.068Z,0.00
2018-06-27T03:11:46.004Z,0.00
2018-06-27T03:12:45.942Z,0.00
2018-06-27T03:13:45.879Z,0.00
2018-06-27T03:14:45.818Z,0.00
2018-06-27T03:15:45.752Z,0.00
2018-06-27T03:16:45.691Z,0.00
2018-06-27T03:17:45.630Z,0.00
2018-06-27T03:18:45.565Z,0.00
2018-06-27T03:19:45.502Z,0.00
2018-06-27T03:20:45.441Z,0.00
2018-06-27T03:21:45.379Z,0.00
2018-06-27T03:22:45.314Z,0.00
2018-06-27T03:23:45.250Z,0.00
2018-06-27T03:24:45.189Z,0.00
2018-06-27T03:25:45.125Z,5.63
2018-06-27T03:26:45.062Z,5.63
2018-06-27T03:27:45.000Z,5.63
2018-06-27T03:28:44.938Z,5.63
2018-06-27T03:29:44.876Z,5.63
2018-06-27T03:30:44.813Z,5.63
2018-06-27T03:31:44.750Z,5.63
2018-06-27T03:32:44.686Z,5.63
2018-06-27T03:33:44.652Z,5.63
2018-06-27T03:34:44.564Z,5.63
2018-06-27T03:35:44.501Z,5.63
2018-06-27T03:36:44.436Z,5.63
2018-06-27T03:37:44.373Z,5.63
2018-06-27T03:38:44.310Z,11.25
2018-06-27T03:39:44.244Z,11.25
2018-06-27T03:40:44.185Z,11.25
2018-06-27T03:41:44.123Z,11.25
2018-06-27T03:42:44.059Z,11.25
2018-06-27T03:43:43.997Z,11.25
2018-06-27T03:44:43.933Z,11.25
2018-06-27T03:45:43.876Z,11.25
2018-06-27T03:46:43.807Z,11.25
2018-06-27T03:47:43.746Z,11.25
2018-06-27T03:48:43.682Z,11.25
2018-06-27T03:49:43.621Z,16.88
2018-06-27T03:50:43.559Z,16.88
2018-06-27T03:51:43.493Z,16.88
2018-06-27T03:52:43.431Z,16.88
2018-06-27T03:53:43.373Z,16.88
2018-06-27T03:54:43.305Z,16.88
2018-06-27T03:55:43.243Z,16.88
2018-06-27T03:56:43.180Z,16.88
2018-06-27T03:57:43.118Z,16.88
2018-06-27T03:58:43.058Z,16.88
2018-06-27T03:59:42.992Z,16.88
2018-06-27T04:00:42.944Z,22.50
2018-06-27T04:01:42.870Z,22.50
2018-06-27T04:02:42.802Z,22.50
2018-06-27T04:03:42.742Z,22.50
2018-06-27T04:04:42.681Z,22.50
2018-06-27T04:05:42.615Z,22.50
2018-06-27T04:06:42.552Z,22.50
2018-06-27T04:07:42.492Z,22.50
2018-06-27T04:08:42.428Z,22.50
2018-06-27T04:09:42.364Z,22.50
2018-06-27T04:10:42.304Z,22.50
2018-06-27T04:11:42.244Z,28.13
2018-06-27T04:12:42.201Z,28.13
2018-06-27T04:13:42.114Z,28.13
2018-06-27T04:14:42.051Z,28.13
2018-06-27T04:15:41.998Z,28.13
2018-06-27T04:16:41.926Z,28.13
2018-06-27T04:17:41.860Z,28.13
2018-06-27T04:18:41.808Z,28.13
2018-06-27T04:19:41.736Z,28.13
2018-06-27T04:20:41.672Z,33.75
2018-06-27T04:21:41.614Z,33.75
2018-06-27T04:22:41.548Z,33.75
2018-06-27T04:23:41.488Z,33.75
2018-06-27T04:24:41.422Z,33.75
2018-06-27T04:25:41.358Z,33.75
2018-06-27T04:26:41.296Z,33.75
2018-06-27T04:27:41.235Z,33.75
2018-06-27T04:28:41.172Z,33.75
2018-06-27T04:29:41.110Z,33.75
2018-06-27T04:30:41.046Z,39.38
2018-06-27T04:31:40.985Z,39.38
2018-06-27T04:32:40.923Z,39.38
2018-06-27T04:33:40.861Z,39.38
2018-06-27T04:34:40.802Z,39.38
2018-06-27T04:35:40.733Z,39.38
2018-06-27T04:36:40.672Z,39.38
2018-06-27T04:37:40.611Z,39.38
2018-06-27T04:38:40.545Z,39.38
2018-06-27T04:39:40.482Z,45.00
2018-06-27T04:40:40.421Z,45.00
2018-06-27T04:41:40.359Z,45.00
2018-06-27T04:42:40.295Z,45.00
2018-06-27T04:43:40.234Z,45.00
2018-06-27T04:44:40.171Z,45.00
2018-06-27T04:45:40.109Z,45.00
2018-06-27T04:46:40.044Z,45.00
2018-06-27T04:47:39.983Z,50.63
2018-06-27T04:48:39.920Z,50.63
2018-06-27T04:49:39.860Z,50.63
2018-06-27T04:50:39.796Z,50.63
2018-06-27T04:51:39.733Z,50.63
2018-06-27T04:52:39.671Z,50.63
2018-06-27T04:53:39.609Z,50.63
2018-06-27T04:54:39.545Z,50.63
2018-06-27T04:55:39.483Z,50.63
2018-06-27T04:56:39.422Z,56.25
2018-06-27T04:57:39.358Z,56.25
2018-06-27T04:58:39.296Z,56.25
2018-06-27T04:59:39.234Z,56.25
2018-06-27T05:00:39.171Z,56.25
2018-06-27T05:01:39.141Z,56.25
2018-06-27T05:02:39.045Z,56.25
2018-06-27T05:03:38.982Z,56.25
2018-06-27T05:04:38.921Z,56.25
2018-06-27T05:05:38.859Z,61.88
2018-06-27T05:06:38.793Z,61.88
2018-06-27T05:07:38.733Z,61.88
2018-06-27T05:08:38.673Z,61.88
2018-06-27T05:09:38.609Z,61.88
2018-06-27T05:10:38.545Z,61.88
2018-06-27T05:11:38.501Z,61.88
2018-06-27T05:12:38.423Z,67.50
2018-06-27T05:13:38.359Z,67.50
2018-06-27T05:14:38.298Z,67.50
2018-06-27T05:15:38.235Z,67.50
2018-06-27T05:16:38.173Z,67.50
2018-06-27T05:17:38.109Z,67.50
2018-06-27T05:18:38.046Z,73.13
2018-06-27T05:19:37.986Z,73.13
2018-06-27T05:20:37.924Z,73.13
2018-06-27T05:21:37.861Z,73.13
2018-06-27T05:22:37.799Z,73.13
2018-06-27T05:23:37.737Z,61.88
2018-06-27T05:24:37.678Z,73.13
2018-06-27T05:25:37.612Z,73.13
2018-06-27T05:26:37.550Z,73.13
2018-06-27T05:27:37.608Z,73.13
2018-06-27T05:28:37.426Z,78.75
2018-06-27T05:29:37.366Z,78.75
2018-06-27T05:30:37.302Z,78.75
2018-06-27T05:31:37.240Z,84.38
2018-06-27T05:32:37.195Z,84.38
2018-06-27T05:33:37.121Z,90.00
2018-06-27T05:34:37.058Z,90.00
2018-06-27T05:35:36.995Z,95.63
2018-06-27T05:36:36.930Z,73.13
2018-06-27T05:37:36.872Z,90.00
2018-06-27T05:38:36.808Z,84.38
2018-06-27T05:39:36.745Z,101.25
2018-06-27T05:40:36.683Z,95.63
2018-06-27T05:41:36.622Z,90.00
2018-06-27T05:42:36.560Z,90.00
2018-06-27T05:43:36.499Z,90.00
2018-06-27T05:44:36.436Z,90.00
2018-06-27T05:45:36.374Z,90.00
2018-06-27T05:46:36.312Z,90.00
2018-06-27T05:47:36.252Z,90.00
2018-06-27T05:48:36.190Z,90.00
2018-06-27T05:49:36.128Z,95.63
2018-06-27T05:50:36.067Z,95.63
2018-06-27T05:51:36.048Z,95.63
2018-06-27T05:52:35.943Z,95.63
2018-06-27T05:53:35.883Z,101.25
2018-06-27T05:54:35.819Z,101.25
2018-06-27T05:55:35.758Z,112.50
2018-06-27T05:56:35.693Z,118.13
2018-06-27T05:57:35.636Z,112.50
2018-06-27T05:58:35.620Z,106.88
2018-06-27T05:59:35.512Z,106.88
2018-06-27T06:00:35.451Z,106.88
2018-06-27T06:01:35.390Z,106.88
2018-06-27T06:02:35.328Z,106.88
2018-06-27T06:03:35.265Z,106.88
2018-06-27T06:04:35.207Z,106.88
2018-06-27T06:05:35.151Z,106.88
2018-06-27T06:06:35.084Z,106.88
2018-06-27T06:07:35.021Z,106.88
2018-06-27T06:08:34.959Z,106.88
2018-06-27T06:09:34.899Z,112.50
2018-06-27T06:10:34.837Z,112.50
2018-06-27T06:11:34.806Z,101.25
2018-06-27T06:12:34.714Z,106.88
2018-06-27T06:13:34.655Z,135.00
2018-06-27T06:14:34.593Z,135.00
2018-06-27T06:15:34.533Z,129.38
2018-06-27T06:16:34.470Z,112.50
2018-06-27T06:17:34.410Z,129.38
2018-06-27T06:18:34.349Z,135.00
2018-06-27T06:19:34.287Z,129.38
2018-06-27T06:20:34.230Z,123.75
2018-06-27T06:21:34.165Z,123.75
2018-06-27T06:22:34.103Z,129.38
2018-06-27T06:23:34.043Z,129.38
2018-06-27T06:24:33.986Z,135.00
2018-06-27T06:25:33.923Z,140.63
2018-06-27T06:26:33.861Z,135.00
2018-06-27T06:27:33.798Z,112.50
2018-06-27T06:28:33.738Z,140.63
2018-06-27T06:29:33.677Z,135.00
2018-06-27T06:30:33.615Z,135.00
2018-06-27T06:31:33.555Z,112.50
2018-06-27T06:32:33.557Z,112.50
2018-06-27T06:33:33.435Z,140.63
2018-06-27T06:34:33.373Z,129.38
2018-06-27T06:35:33.312Z,129.38
2018-06-27T06:36:33.252Z,112.50
2018-06-27T06:37:33.192Z,112.50
2018-06-27T06:38:33.134Z,129.38
2018-06-27T06:39:33.070Z,151.88
2018-06-27T06:40:33.010Z,151.88
2018-06-27T06:41:32.951Z,163.13
2018-06-27T06:42:32.888Z,146.25
2018-06-27T06:43:32.830Z,146.25
2018-06-27T06:44:32.767Z,123.75
2018-06-27T06:45:32.707Z,140.63
2018-06-27T06:46:32.645Z,101.25
2018-06-27T06:47:32.585Z,118.13
2018-06-27T06:48:32.525Z,129.38
2018-06-27T06:49:32.465Z,146.25
2018-06-27T06:50:32.402Z,146.25
2018-06-27T06:51:32.344Z,146.25
2018-06-27T06:52:32.285Z,157.50
2018-06-27T06:53:32.223Z,185.63
2018-06-27T06:54:32.162Z,202.50
2018-06-27T06:55:32.103Z,208.13
2018-06-27T06:56:32.044Z,196.88
2018-06-27T06:57:31.984Z,185.63
2018-06-27T06:58:31.923Z,196.88
2018-06-27T06:59:31.862Z,163.13
2018-06-27T07:00:31.805Z,174.38
2018-06-27T07:01:31.742Z,180.00
2018-06-27T07:02:31.682Z,140.63
2018-06-27T07:03:31.622Z,123.75
2018-06-27T07:04:31.561Z,140.63
2018-06-27T07:05:31.510Z,191.25
2018-06-27T07:06:31.441Z,174.38
2018-06-27T07:07:31.381Z,151.88
2018-06-27T07:08:31.327Z,135.00
2018-06-27T07:09:31.260Z,146.25
2018-06-27T07:10:31.201Z,157.50
2018-06-27T07:11:31.142Z,180.00
2018-06-27T07:12:31.083Z,174.38
2018-06-27T07:13:31.024Z,225.00
2018-06-27T07:14:30.968Z,219.38
2018-06-27T07:15:30.903Z,174.38
2018-06-27T07:16:30.844Z,219.38
2018-06-27T07:17:30.784Z,225.00
2018-06-27T07:18:30.722Z,219.38
2018-06-27T07:19:30.665Z,213.75
2018-06-27T07:20:30.604Z,208.13
2018-06-27T07:21:30.544Z,202.50
2018-06-27T07:22:30.487Z,202.50
2018-06-27T07:23:30.425Z,208.13
2018-06-27T07:24:30.368Z,208.13
2018-06-27T07:25:30.307Z,202.50
2018-06-27T07:26:30.248Z,163.13
2018-06-27T07:27:30.189Z,157.50
2018-06-27T07:28:30.157Z,180.00
2018-06-27T07:29:30.069Z,213.75
2018-06-27T07:30:30.012Z,225.00
2018-06-27T07:31:29.954Z,219.38
2018-06-27T07:32:29.894Z,151.88
2018-06-27T07:33:29.836Z,185.63
2018-06-27T07:34:29.774Z,191.25
2018-06-27T07:35:29.716Z,196.88
2018-06-27T07:36:29.695Z,213.75
2018-06-27T07:37:29.597Z,208.13
2018-06-27T07:38:29.538Z,168.75
2018-06-27T07:39:29.479Z,157.50
2018-06-27T07:40:29.421Z,174.38
2018-06-27T07:41:29.364Z,185.63
2018-06-27T07:42:29.304Z,225.00
2018-06-27T07:43:29.244Z,191.25
2018-06-27T07:44:29.230Z,174.38
2018-06-27T07:45:29.125Z,151.88
2018-06-27T07:46:29.065Z,151.88
2018-06-27T07:47:29.004Z,151.88
2018-06-27T07:48:28.950Z,151.88
2018-06-27T07:49:28.888Z,146.25
2018-06-27T07:50:28.831Z,146.25
2018-06-27T07:51:28.770Z,219.38
2018-06-27T07:52:28.713Z,219.38
2018-06-27T07:53:28.655Z,225.00
2018-06-27T07:54:28.594Z,191.25
2018-06-27T07:55:28.537Z,230.63
2018-06-27T07:56:28.476Z,241.88
2018-06-27T07:57:28.422Z,275.63
2018-06-27T07:58:28.360Z,253.13
2018-06-27T07:59:28.302Z,208.13
2018-06-27T08:00:28.243Z,213.75
2018-06-27T08:01:28.183Z,202.50
2018-06-27T08:02:28.124Z,213.75
2018-06-27T08:03:28.066Z,264.38
2018-06-27T08:04:28.009Z,303.75
2018-06-27T08:05:27.949Z,236.25
2018-06-27T08:06:27.892Z,168.75
2018-06-27T08:07:27.832Z,168.75
2018-06-27T08:08:27.772Z,174.38
2018-06-27T08:09:27.715Z,196.88
2018-06-27T08:10:27.656Z,191.25
2018-06-27T08:11:27.606Z,219.38
2018-06-27T08:12:27.631Z,225.00
2018-06-27T08:13:27.483Z,230.63
2018-06-27T08:14:27.424Z,230.63
2018-06-27T08:15:27.366Z,230.63
2018-06-27T08:16:27.305Z,236.25
2018-06-27T08:17:27.250Z,241.88
2018-06-27T08:18:27.187Z,253.13
2018-06-27T08:19:27.132Z,241.88
2018-06-27T08:20:27.072Z,202.50
2018-06-27T08:21:27.016Z,264.38
2018-06-27T08:22:26.953Z,258.75
2018-06-27T08:23:26.897Z,213.75
2018-06-27T08:24:26.842Z,135.00
2018-06-27T08:25:26.782Z,123.75
2018-06-27T08:26:26.876Z,135.00
2018-06-27T08:27:26.665Z,202.50
2018-06-27T08:28:26.607Z,270.00
2018-06-27T08:29:26.549Z,253.13
2018-06-27T08:30:26.491Z,219.38
2018-06-27T08:31:26.432Z,191.25
2018-06-27T08:32:26.378Z,180.00
2018-06-27T08:33:26.315Z,196.88
2018-06-27T08:34:26.257Z,208.13
2018-06-27T08:35:26.199Z,241.88
2018-06-27T08:36:26.143Z,337.50
2018-06-27T08:37:26.085Z,286.88
2018-06-27T08:38:26.026Z,174.38
2018-06-27T08:39:25.968Z,140.63
2018-06-27T08:40:25.910Z,118.13
2018-06-27T08:41:25.860Z,95.63
2018-06-27T08:42:25.795Z,73.13
2018-06-27T08:43:25.740Z,67.50
2018-06-27T08:44:25.693Z,61.88
2018-06-27T08:45:25.622Z,61.88
2018-06-27T08:46:25.562Z,56.25
2018-06-27T08:47:25.560Z,56.25
2018-06-27T08:48:25.447Z,50.63
2018-06-27T08:49:25.390Z,45.00
2018-06-27T08:50:25.333Z,39.38
2018-06-27T08:51:25.277Z,39.38
2018-06-27T08:52:25.216Z,39.38
2018-06-27T08:53:25.160Z,45.00
2018-06-27T08:54:25.100Z,45.00
2018-06-27T08:55:25.042Z,45.00
2018-06-27T08:56:24.986Z,45.00
2018-06-27T08:57:24.929Z,50.63
2018-06-27T08:58:24.867Z,50.63
2018-06-27T08:59:24.810Z,56.25
2018-06-27T09:00:24.753Z,61.88
2018-06-27T09:01:24.692Z,67.50
2018-06-27T09:02:24.634Z,73.13
2018-06-27T09:03:24.577Z,78.75
2018-06-27T09:04:24.517Z,84.38
2018-06-27T09:05:24.465Z,90.00
2018-06-27T09:06:24.400Z,95.63
2018-06-27T09:07:24.343Z,106.88
2018-06-27T09:08:24.282Z,129.38
2018-06-27T09:09:24.233Z,135.00
2018-06-27T09:10:24.166Z,241.88
2018-06-27T09:11:24.106Z,241.88
2018-06-27T09:12:24.049Z,241.88
2018-06-27T09:13:23.991Z,253.13
2018-06-27T09:14:23.930Z,264.38
2018-06-27T09:15:23.872Z,292.50
2018-06-27T09:16:23.817Z,348.75
2018-06-27T09:17:23.758Z,399.38
2018-06-27T09:18:23.699Z,433.13
2018-06-27T09:19:23.644Z,466.88
2018-06-27T09:20:23.583Z,466.88
2018-06-27T09:21:23.526Z,466.88
2018-06-27T09:22:23.469Z,466.88
2018-06-27T09:23:23.410Z,472.50
2018-06-27T09:24:23.352Z,472.50
2018-06-27T09:25:23.300Z,461.25
2018-06-27T09:26:23.243Z,455.63
2018-06-27T09:27:23.186Z,472.50
2018-06-27T09:28:23.133Z,472.50
2018-06-27T09:29:23.078Z,495.00
2018-06-27T09:30:23.026Z,511.88
2018-06-27T09:31:22.968Z,506.25
2018-06-27T09:32:22.915Z,489.38
2018-06-27T09:33:22.862Z,489.38
2018-06-27T09:34:22.807Z,478.13
2018-06-27T09:35:22.753Z,118.13
2018-06-27T09:36:22.704Z,129.38
2018-06-27T09:37:22.646Z,495.00
2018-06-27T09:38:22.594Z,331.88
2018-06-27T09:39:22.539Z,371.25
2018-06-27T09:40:22.486Z,106.88
2018-06-27T09:41:22.434Z,95.63
2018-06-27T09:42:22.380Z,95.63
2018-06-27T09:43:22.327Z,163.13
2018-06-27T09:44:22.275Z,433.13
2018-06-27T09:45:22.222Z,455.63
2018-06-27T09:46:22.167Z,461.25
2018-06-27T09:47:22.114Z,455.63
2018-06-27T09:48:22.061Z,444.38
2018-06-27T09:49:22.008Z,455.63
2018-06-27T09:50:21.956Z,455.63
2018-06-27T09:51:21.901Z,450.00
2018-06-27T09:52:21.849Z,455.63
2018-06-27T09:53:21.796Z,444.38
2018-06-27T09:54:21.744Z,455.63
2018-06-27T09:55:21.691Z,461.25
2018-06-27T09:56:21.641Z,472.50
2018-06-27T09:57:21.589Z,483.75
2018-06-27T09:58:21.535Z,247.50
2018-06-27T09:59:21.482Z,180.00
2018-06-27T10:00:21.435Z,191.25
2018-06-27T10:01:21.380Z,466.88
2018-06-27T10:02:21.327Z,489.38
2018-06-27T10:03:21.276Z,433.13
2018-06-27T10:04:21.223Z,478.13
2018-06-27T10:05:21.173Z,298.13
2018-06-27T10:06:21.122Z,326.25
2018-06-27T10:07:21.069Z,461.25
2018-06-27T10:08:21.016Z,433.13
2018-06-27T10:09:20.964Z,146.25
2018-06-27T10:10:20.912Z,151.88
2018-06-27T10:11:20.861Z,163.13
2018-06-27T10:12:20.811Z,163.13
2018-06-27T10:13:20.757Z,163.13
2018-06-27T10:14:20.704Z,157.50
2018-06-27T10:15:20.657Z,151.88
2018-06-27T10:16:20.602Z,140.63
2018-06-27T10:17:20.594Z,146.25
2018-06-27T10:18:20.493Z,174.38
2018-06-27T10:19:20.441Z,354.38
2018-06-27T10:20:20.388Z,230.63
2018-06-27T10:21:20.332Z,348.75
2018-06-27T10:22:20.355Z,298.13
2018-06-27T10:23:20.226Z,343.13
2018-06-27T10:24:20.175Z,343.13
2018-06-27T10:25:20.123Z,337.50
2018-06-27T10:26:20.064Z,337.50
2018-06-27T10:27:20.010Z,337.50
2018-06-27T10:28:19.967Z,337.50
2018-06-27T10:29:19.905Z,337.50
2018-06-27T10:30:19.851Z,343.13
2018-06-27T10:31:19.798Z,354.38
2018-06-27T10:32:19.797Z,360.00
2018-06-27T10:33:19.693Z,331.88
2018-06-27T10:34:19.640Z,135.00
2018-06-27T10:35:19.586Z,371.25
2018-06-27T10:36:19.533Z,140.63
2018-06-27T10:37:19.481Z,354.38
2018-06-27T10:38:19.428Z,354.38
2018-06-27T10:39:19.375Z,241.88
2018-06-27T10:40:19.322Z,140.63
2018-06-27T10:41:19.274Z,151.88
2018-06-27T10:42:19.216Z,225.00
2018-06-27T10:43:19.165Z,140.63
2018-06-27T10:44:19.111Z,151.88
2018-06-27T10:45:19.058Z,337.50
2018-06-27T10:46:19.006Z,174.38
2018-06-27T10:47:18.954Z,292.50
2018-06-27T10:48:18.900Z,303.75
2018-06-27T10:49:18.845Z,168.75
2018-06-27T10:50:18.792Z,151.88
2018-06-27T10:51:18.737Z,163.13
2018-06-27T10:52:18.685Z,146.25
2018-06-27T10:53:18.633Z,151.88
2018-06-27T10:54:18.577Z,348.75
2018-06-27T10:55:18.526Z,123.75
2018-06-27T10:56:18.469Z,118.13
2018-06-27T10:57:18.415Z,112.50
2018-06-27T10:58:18.363Z,331.88
2018-06-27T10:59:18.307Z,326.25
2018-06-27T11:00:18.253Z,315.00
2018-06-27T11:01:18.198Z,303.75
2018-06-27T11:02:18.143Z,303.75
2018-06-27T11:03:18.090Z,309.38
2018-06-27T11:04:18.035Z,309.38
2018-06-27T11:05:18.019Z,309.38
2018-06-27T11:06:17.927Z,309.38
2018-06-27T11:07:17.873Z,315.00
2018-06-27T11:08:17.818Z,315.00
2018-06-27T11:09:17.761Z,309.38
2018-06-27T11:10:17.710Z,315.00
2018-06-27T11:11:17.656Z,320.63
2018-06-27T11:12:17.604Z,331.88
2018-06-27T11:13:17.550Z,315.00
2018-06-27T11:14:17.518Z,320.63
2018-06-27T11:15:17.441Z,315.00
2018-06-27T11:16:17.398Z,303.75
2018-06-27T11:17:17.337Z,286.88
2018-06-27T11:18:17.281Z,264.38
2018-06-27T11:19:17.225Z,258.75
2018-06-27T11:20:17.186Z,264.38
2018-06-27T11:21:17.121Z,264.38
2018-06-27T11:22:17.066Z,247.50
2018-06-27T11:23:17.014Z,129.38
2018-06-27T11:24:16.957Z,151.88
2018-06-27T11:25:16.908Z,163.13
2018-06-27T11:26:16.850Z,151.88
2018-06-27T11:27:16.797Z,140.63
2018-06-27T11:28:16.742Z,129.38
2018-06-27T11:29:16.687Z,129.38
2018-06-27T11:30:16.633Z,118.13
2018-06-27T11:31:16.581Z,118.13
2018-06-27T11:32:16.523Z,118.13
2018-06-27T11:33:16.470Z,118.13
2018-06-27T11:34:16.419Z,129.38
2018-06-27T11:35:16.358Z,135.00
2018-06-27T11:36:16.305Z,140.63
2018-06-27T11:37:16.258Z,151.88
2018-06-27T11:38:16.196Z,140.63
2018-06-27T11:39:16.137Z,202.50
2018-06-27T11:40:16.084Z,230.63
2018-06-27T11:41:16.028Z,225.00
2018-06-27T11:42:15.972Z,225.00
2018-06-27T11:43:15.967Z,219.38
2018-06-27T11:44:15.858Z,118.13
2018-06-27T11:45:15.806Z,106.88
2018-06-27T11:46:15.748Z,208.13
2018-06-27T11:47:15.700Z,208.13
2018-06-27T11:48:15.648Z,213.75
2018-06-27T11:49:15.580Z,219.38
2018-06-27T11:50:15.525Z,236.25
2018-06-27T11:51:15.469Z,241.88
2018-06-27T11:52:15.412Z,247.50
2018-06-27T11:53:15.374Z,258.75
2018-06-27T11:54:15.298Z,191.25
2018-06-27T11:55:15.242Z,258.75
2018-06-27T11:56:15.187Z,247.50
2018-06-27T11:57:15.130Z,163.13
2018-06-27T11:58:15.076Z,236.25
2018-06-27T11:59:15.021Z,230.63
2018-06-27T12:00:14.967Z,146.25
2018-06-27T12:01:14.906Z,225.00
2018-06-27T12:02:14.849Z,135.00
2018-06-27T12:03:14.789Z,123.75
2018-06-27T12:04:14.735Z,118.13
2018-06-27T12:05:14.678Z,118.13
2018-06-27T12:06:14.632Z,112.50
2018-06-27T12:07:14.564Z,112.50
2018-06-27T12:08:14.508Z,112.50
2018-06-27T12:09:14.451Z,112.50
2018-06-27T12:10:14.391Z,106.88
2018-06-27T12:11:14.337Z,112.50
2018-06-27T12:12:14.281Z,106.88
2018-06-27T12:13:14.226Z,106.88
2018-06-27T12:14:14.167Z,101.25
2018-06-27T12:15:14.109Z,95.63
2018-06-27T12:16:14.053Z,106.88
2018-06-27T12:17:13.997Z,135.00
2018-06-27T12:18:13.939Z,163.13
2018-06-27T12:19:13.882Z,174.38
2018-06-27T12:20:13.825Z,225.00
2018-06-27T12:21:13.770Z,151.88
2018-06-27T12:22:13.711Z,230.63
2018-06-27T12:23:13.656Z,225.00
2018-06-27T12:24:13.617Z,146.25
2018-06-27T12:25:13.546Z,129.38
2018-06-27T12:26:13.522Z,84.38
2018-06-27T12:27:13.427Z,180.00
2018-06-27T12:28:13.371Z,185.63
2018-06-27T12:29:13.312Z,180.00
2018-06-27T12:30:13.256Z,174.38
2018-06-27T12:31:13.198Z,180.00
2018-06-27T12:32:13.141Z,180.00
2018-06-27T12:33:13.083Z,180.00
2018-06-27T12:34:13.026Z,180.00
2018-06-27T12:35:12.967Z,180.00
2018-06-27T12:36:12.911Z,180.00
2018-06-27T12:37:12.859Z,67.50
2018-06-27T12:38:12.798Z,191.25
2018-06-27T12:39:12.738Z,191.25
2018-06-27T12:40:12.686Z,196.88
2018-06-27T12:41:12.625Z,196.88
2018-06-27T12:42:12.567Z,202.50
2018-06-27T12:43:12.531Z,202.50
2018-06-27T12:44:12.453Z,202.50
2018-06-27T12:45:12.397Z,202.50
2018-06-27T12:46:12.339Z,67.50
2018-06-27T12:47:12.279Z,61.88